createdAt,value
2022-07-27T00:02:36.921Z,100.00
2022-07-27T00:07:44.043Z,100.00
2022-07-27T00:12:52.471Z,100.00
2022-07-27T00:18:29.757Z,100.00
2022-07-27T00:24:01.963Z,100.00
2022-07-27T00:29:10.742Z,100.00
2022-07-27T00:34:18.179Z,100.00
2022-07-27T00:39:49.952Z,100.00
2022-07-27T00:45:05.486Z,100.00
2022-07-27T00:50:37.844Z,100.00
2022-07-27T00:56:09.920Z,100.00
2022-07-27T01:01:20.650Z,100.00
2022-07-27T01:06:52.766Z,100.00
2022-07-27T01:12:25.513Z,100.00
2022-07-27T01:17:58.191Z,100.00
2022-07-27T01:23:32.941Z,100.00
2022-07-27T01:29:04.616Z,100.00
2022-07-27T01:34:11.533Z,100.00
2022-07-27T01:39:26.076Z,100.00
2022-07-27T01:45:22.446Z,100.00
2022-07-27T01:50:56.081Z,100.00
2022-07-27T01:56:33.175Z,100.00
2022-07-27T02:02:05.207Z,100.00
2022-07-27T02:07:12.212Z,100.00
2022-07-27T02:12:45.361Z,100.00
2022-07-27T02:18:40.897Z,100.00
2022-07-27T02:23:51.533Z,100.00
2022-07-27T02:29:03.094Z,100.00
2022-07-27T02:34:10.568Z,100.00
2022-07-27T02:39:17.564Z,100.00
2022-07-27T02:44:50.367Z,100.00
2022-07-27T02:50:22.768Z,100.00
2022-07-27T02:56:19.510Z,100.00
2022-07-27T03:01:35.148Z,100.00
2022-07-27T03:07:07.106Z,100.00
2022-07-27T03:12:39.155Z,100.00
2022-07-27T03:17:51.521Z,100.00
2022-07-27T03:22:58.385Z,100.00
2022-07-27T03:28:05.471Z,99.54
2022-07-27T03:33:43.709Z,99.57
2022-07-27T03:39:15.585Z,98.13
2022-07-27T03:44:46.843Z,97.36
2022-07-27T03:49:55.053Z,97.27
2022-07-27T03:55:02.255Z,98.22
2022-07-27T04:00:35.082Z,98.01
2022-07-27T04:06:08.996Z,98.00
2022-07-27T04:11:17.647Z,98.14
2022-07-27T04:16:51.234Z,98.74
2022-07-27T04:22:00.809Z,98.52
2022-07-27T04:27:08.105Z,98.03
2022-07-27T04:32:40.409Z,97.16
2022-07-27T04:37:59.445Z,97.25
2022-07-27T04:43:11.132Z,97.19
2022-07-27T04:48:49.431Z,97.24
2022-07-27T04:54:22.529Z,97.41
2022-07-27T04:59:30.845Z,97.67
2022-07-27T05:04:38.009Z,96.12
2022-07-27T05:10:17.984Z,96.05
2022-07-27T05:15:27.663Z,97.02
2022-07-27T05:20:59.174Z,96.31
2022-07-27T05:26:36.532Z,96.16
2022-07-27T05:31:46.264Z,94.54
2022-07-27T05:36:54.227Z,93.25
2022-07-27T05:42:07.367Z,93.37
2022-07-27T05:47:40.374Z,92.40
2022-07-27T05:52:48.717Z,91.40
2022-07-27T05:57:57.455Z,92.44
2022-07-27T06:03:29.362Z,88.45
2022-07-27T06:08:41.265Z,89.76
2022-07-27T06:13:51.121Z,89.22
2022-07-27T06:19:23.398Z,87.52
2022-07-27T06:24:55.337Z,85.12
2022-07-27T06:30:34.188Z,82.49
2022-07-27T06:36:06.211Z,86.31
2022-07-27T06:41:13.198Z,87.30
2022-07-27T06:46:46.950Z,87.95
2022-07-27T06:51:59.775Z,85.32
2022-07-27T06:57:07.379Z,84.19
2022-07-27T07:02:16.112Z,85.43
2022-07-27T07:07:23.210Z,83.50
2022-07-27T07:12:30.198Z,84.55
2022-07-27T07:18:07.286Z,83.32
2022-07-27T07:23:39.277Z,80.56
2022-07-27T07:28:46.555Z,81.59
2022-07-27T07:33:56.446Z,81.59
2022-07-27T07:39:03.948Z,78.53
2022-07-27T07:44:10.910Z,78.26
2022-07-27T07:49:21.498Z,79.57
2022-07-27T07:55:10.196Z,80.50
2022-07-27T08:00:44.334Z,80.42
2022-07-27T08:06:17.946Z,77.97
2022-07-27T08:11:49.610Z,79.53
2022-07-27T08:16:56.815Z,78.89
2022-07-27T08:22:05.332Z,79.53
2022-07-27T08:27:12.309Z,80.72
2022-07-27T08:32:19.322Z,80.91
2022-07-27T08:37:27.884Z,80.16
2022-07-27T08:43:00.047Z,79.81
2022-07-27T08:48:32.483Z,79.86
2022-07-27T08:53:52.538Z,79.47
2022-07-27T08:59:25.366Z,79.79
2022-07-27T09:04:32.961Z,79.48
2022-07-27T09:09:49.167Z,80.80
2022-07-27T09:15:08.885Z,81.43
2022-07-27T09:20:19.202Z,82.50
2022-07-27T09:31:31.371Z,81.87
2022-07-27T09:37:06.849Z,82.41
2022-07-27T09:43:05.445Z,82.67
2022-07-27T09:48:15.006Z,80.72
2022-07-27T09:53:42.345Z,81.40
2022-07-27T09:58:56.331Z,81.32
2022-07-27T10:04:07.074Z,78.94
2022-07-27T10:09:15.046Z,77.69
2022-07-27T10:14:27.779Z,77.51
2022-07-27T10:20:00.038Z,79.68
2022-07-27T10:25:38.126Z,79.30
2022-07-27T10:30:54.730Z,78.89
2022-07-27T10:36:03.678Z,78.79
2022-07-27T10:41:26.840Z,77.66
2022-07-27T10:46:44.873Z,77.69
2022-07-27T10:52:42.795Z,78.03
2022-07-27T10:58:49.689Z,77.32
2022-07-27T11:04:23.981Z,77.34
2022-07-27T11:10:04.411Z,77.42
2022-07-27T11:21:57.858Z,76.92
2022-07-27T11:27:17.050Z,77.37
2022-07-27T11:32:25.103Z,76.30
2022-07-27T11:37:33.839Z,76.65
2022-07-27T11:42:41.962Z,75.78
2022-07-27T11:47:59.314Z,74.45
2022-07-27T11:53:08.244Z,73.83
2022-07-27T11:58:18.836Z,72.94
2022-07-27T12:03:51.355Z,74.18
2022-07-27T12:09:25.112Z,75.05
2022-07-27T12:14:37.942Z,72.49
2022-07-27T12:19:51.624Z,72.25
2022-07-27T12:25:30.872Z,73.57
2022-07-27T12:30:46.958Z,73.55
2022-07-27T12:35:54.704Z,71.26
2022-07-27T12:41:10.839Z,72.20
2022-07-27T12:46:18.737Z,72.14
2022-07-27T12:51:28.467Z,72.90
2022-07-27T12:57:04.574Z,71.83
2022-07-27T13:02:12.054Z,71.87
2022-07-27T13:07:46.654Z,70.95
2022-07-27T13:12:56.385Z,71.10
2022-07-27T13:18:03.884Z,70.98
2022-07-27T13:23:11.292Z,70.42
2022-07-27T13:28:44.569Z,70.06
2022-07-27T13:33:52.724Z,70.45
2022-07-27T13:39:00.250Z,71.09
2022-07-27T13:44:30.051Z,70.05
2022-07-27T13:49:38.155Z,69.86
2022-07-27T13:54:47.549Z,69.67
2022-07-27T13:59:58.082Z,69.57
2022-07-27T14:05:06.221Z,70.30
2022-07-27T14:10:31.907Z,69.88
2022-07-27T14:15:53.002Z,69.12
2022-07-27T14:21:05.297Z,69.26
2022-07-27T14:26:13.534Z,69.56
2022-07-27T14:31:46.698Z,68.85
2022-07-27T14:36:53.346Z,69.50
2022-07-27T14:42:01.368Z,69.58
2022-07-27T14:47:11.260Z,69.78
2022-07-27T14:52:43.600Z,71.45
2022-07-27T14:58:16.008Z,71.05
2022-07-27T15:03:50.442Z,70.91
2022-07-27T15:09:22.723Z,70.66
2022-07-27T15:14:54.203Z,70.62
2022-07-27T15:20:27.214Z,69.87
2022-07-27T15:25:34.706Z,71.81
2022-07-27T15:31:07.401Z,72.71
2022-07-27T15:36:31.558Z,73.62
2022-07-27T15:41:39.807Z,73.93
2022-07-27T15:46:47.820Z,74.72
2022-07-27T15:52:21.178Z,73.79
2022-07-27T15:57:53.343Z,73.49
2022-07-27T16:03:26.047Z,73.39
2022-07-27T16:09:01.202Z,73.46
2022-07-27T16:14:08.655Z,73.60
2022-07-27T16:19:40.558Z,72.53
2022-07-27T16:25:13.774Z,70.78
2022-07-27T16:31:10.845Z,71.05
2022-07-27T16:36:24.419Z,70.90
2022-07-27T16:41:58.829Z,72.61
2022-07-27T16:47:07.203Z,70.73
2022-07-27T16:52:14.596Z,70.27
2022-07-27T16:57:24.207Z,70.78
2022-07-27T17:02:56.335Z,72.37
2022-07-27T17:08:11.422Z,70.49
2022-07-27T17:13:20.005Z,71.33
2022-07-27T17:18:27.856Z,71.41
2022-07-27T17:24:03.414Z,71.43
2022-07-27T17:29:11.897Z,71.19
2022-07-27T17:34:19.532Z,71.60
2022-07-27T17:39:26.427Z,71.93
2022-07-27T17:45:04.799Z,72.21
2022-07-27T17:50:12.288Z,72.38
2022-07-27T17:55:19.298Z,71.88
2022-07-27T18:00:32.728Z,73.21
2022-07-27T18:06:04.720Z,74.94
2022-07-27T18:11:15.003Z,75.88
2022-07-27T18:16:26.966Z,78.60
2022-07-27T18:21:39.138Z,79.74
2022-07-27T18:27:14.485Z,80.96
2022-07-27T18:32:27.613Z,80.41
2022-07-27T18:37:34.732Z,80.44
2022-07-27T18:42:42.317Z,81.05
2022-07-27T18:48:20.120Z,80.68
2022-07-27T18:53:51.698Z,80.34
2022-07-27T18:58:58.525Z,78.95
2022-07-27T19:04:58.249Z,77.01
2022-07-27T19:10:07.783Z,75.90
2022-07-27T19:15:40.520Z,74.55
2022-07-27T19:21:14.432Z,70.97
2022-07-27T19:26:46.571Z,73.38
2022-07-27T19:32:19.003Z,76.42
2022-07-27T19:37:52.621Z,76.66
2022-07-27T19:42:59.921Z,75.07
2022-07-27T19:48:10.107Z,76.57
2022-07-27T19:53:44.399Z,77.48
2022-07-27T19:58:56.646Z,77.36
2022-07-27T20:04:08.233Z,78.07
2022-07-27T20:09:41.354Z,77.88
2022-07-27T20:15:13.152Z,78.11
2022-07-27T20:20:44.938Z,79.54
2022-07-27T20:25:54.174Z,79.86
2022-07-27T20:31:50.437Z,80.18
2022-07-27T20:37:03.627Z,80.98
2022-07-27T20:42:37.752Z,78.60
2022-07-27T20:48:16.639Z,80.30
2022-07-27T20:53:29.146Z,79.61
2022-07-27T20:58:37.960Z,80.29
2022-07-27T21:03:44.799Z,80.96
2022-07-27T21:09:17.107Z,78.98
2022-07-27T21:14:50.293Z,77.25
2022-07-27T21:20:00.459Z,78.05
2022-07-27T21:25:32.104Z,77.36
2022-07-27T21:31:31.207Z,77.88
2022-07-27T21:37:03.029Z,77.75
2022-07-27T21:42:12.282Z,79.01
2022-07-27T21:47:45.646Z,80.11
2022-07-27T21:52:54.325Z,80.42
2022-07-27T21:58:01.634Z,81.80
2022-07-27T22:03:34.426Z,81.65
2022-07-27T22:08:42.447Z,79.98
2022-07-27T22:13:49.658Z,78.36
2022-07-27T22:19:02.034Z,78.41
2022-07-27T22:24:35.139Z,77.82
2022-07-27T22:30:11.056Z,79.17
2022-07-27T22:35:20.091Z,78.07
2022-07-27T22:40:52.644Z,80.02
2022-07-27T22:46:50.874Z,80.27
2022-07-27T22:51:59.195Z,80.45
2022-07-27T22:57:06.619Z,80.60
2022-07-27T23:02:13.389Z,80.64
2022-07-27T23:07:46.423Z,77.89
2022-07-27T23:12:53.203Z,79.84
2022-07-27T23:18:04.681Z,79.74
2022-07-27T23:23:16.353Z,80.84
2022-07-27T23:28:26.643Z,81.28
2022-07-27T23:33:59.125Z,80.86
2022-07-27T23:39:07.584Z,81.25
2022-07-27T23:44:14.847Z,81.63
2022-07-27T23:49:22.199Z,81.72
2022-07-27T23:55:20.724Z,82.14
